sensor_id;sensor_type;location;lat;lon;timestamp;P1;durP1;ratioP1;P2;durP2;ratioP2
15132;SDS011;7667;51.232;17.110;2023-06-10T00:02:27;11.17;;;10.07;;
15132;SDS011;7667;51.232;17.110;2023-06-10T00:04:55;9.73;;;8.97;;
15132;SDS011;7667;51.232;17.110;2023-06-10T00:07:24;10.33;;;9.43;;
15132;SDS011;7667;51.232;17.110;2023-06-10T00:09:51;9.43;;;8.63;;
15132;SDS011;7667;51.232;17.110;2023-06-10T00:12:19;11.07;;;8.80;;
15132;SDS011;7667;51.232;17.110;2023-06-10T00:14:47;10.20;;;9.30;;
15132;SDS011;7667;51.232;17.110;2023-06-10T00:17:17;9.43;;;8.60;;
15132;SDS011;7667;51.232;17.110;2023-06-10T00:19:45;10.83;;;9.83;;
15132;SDS011;7667;51.232;17.110;2023-06-10T00:22:13;10.17;;;9.37;;
15132;SDS011;7667;51.232;17.110;2023-06-10T00:24:41;10.47;;;9.50;;
15132;SDS011;7667;51.232;17.110;2023-06-10T00:27:09;10.50;;;9.50;;
15132;SDS011;7667;51.232;17.110;2023-06-10T00:29:36;10.50;;;9.50;;
15132;SDS011;7667;51.232;17.110;2023-06-10T00:32:05;10.10;;;9.30;;
15132;SDS011;7667;51.232;17.110;2023-06-10T00:34:34;9.97;;;9.17;;
15132;SDS011;7667;51.232;17.110;2023-06-10T00:37:02;9.03;;;8.23;;
15132;SDS011;7667;51.232;17.110;2023-06-10T00:39:30;9.90;;;8.90;;
15132;SDS011;7667;51.232;17.110;2023-06-10T00:41:57;10.80;;;8.87;;
15132;SDS011;7667;51.232;17.110;2023-06-10T00:44:25;9.67;;;8.73;;
15132;SDS011;7667;51.232;17.110;2023-06-10T00:46:52;9.17;;;8.37;;
15132;SDS011;7667;51.232;17.110;2023-06-10T00:49:22;9.70;;;8.80;;
15132;SDS011;7667;51.232;17.110;2023-06-10T00:51:51;9.17;;;8.27;;
15132;SDS011;7667;51.232;17.110;2023-06-10T00:54:20;10.10;;;9.17;;
15132;SDS011;7667;51.232;17.110;2023-06-10T00:56:48;9.17;;;8.37;;
15132;SDS011;7667;51.232;17.110;2023-06-10T00:59:17;9.27;;;8.43;;
15132;SDS011;7667;51.232;17.110;2023-06-10T01:01:45;8.67;;;7.87;;
15132;SDS011;7667;51.232;17.110;2023-06-10T01:04:15;8.90;;;8.10;;
15132;SDS011;7667;51.232;17.110;2023-06-10T01:15:35;9.97;;;8.13;;
15132;SDS011;7667;51.232;17.110;2023-06-10T01:18:03;8.57;;;7.77;;
15132;SDS011;7667;51.232;17.110;2023-06-10T01:20:36;9.00;;;8.27;;
15132;SDS011;7667;51.232;17.110;2023-06-10T01:23:07;9.37;;;8.57;;
15132;SDS011;7667;51.232;17.110;2023-06-10T01:25:45;8.73;;;7.87;;
15132;SDS011;7667;51.232;17.110;2023-06-10T01:34:01;12.13;;;9.57;;
15132;SDS011;7667;51.232;17.110;2023-06-10T01:36:30;9.53;;;8.63;;
15132;SDS011;7667;51.232;17.110;2023-06-10T01:39:00;10.00;;;8.80;;
15132;SDS011;7667;51.232;17.110;2023-06-10T01:41:29;10.27;;;9.37;;
15132;SDS011;7667;51.232;17.110;2023-06-10T01:43:56;10.27;;;9.33;;
15132;SDS011;7667;51.232;17.110;2023-06-10T01:46:24;10.57;;;8.90;;
15132;SDS011;7667;51.232;17.110;2023-06-10T01:48:52;10.43;;;9.30;;
15132;SDS011;7667;51.232;17.110;2023-06-10T01:51:20;9.40;;;8.60;;
15132;SDS011;7667;51.232;17.110;2023-06-10T01:53:47;8.80;;;8.00;;
15132;SDS011;7667;51.232;17.110;2023-06-10T01:56:15;9.10;;;8.30;;
15132;SDS011;7667;51.232;17.110;2023-06-10T01:58:46;9.37;;;8.47;;
15132;SDS011;7667;51.232;17.110;2023-06-10T02:01:13;10.00;;;8.90;;
15132;SDS011;7667;51.232;17.110;2023-06-10T02:03:41;9.30;;;8.57;;
15132;SDS011;7667;51.232;17.110;2023-06-10T02:06:09;10.57;;;9.57;;
15132;SDS011;7667;51.232;17.110;2023-06-10T02:08:36;10.63;;;9.60;;
15132;SDS011;7667;51.232;17.110;2023-06-10T02:11:04;11.50;;;10.40;;
15132;SDS011;7667;51.232;17.110;2023-06-10T02:13:33;10.50;;;9.60;;
15132;SDS011;7667;51.232;17.110;2023-06-10T02:16:01;10.23;;;9.43;;
15132;SDS011;7667;51.232;17.110;2023-06-10T02:18:29;11.20;;;10.10;;
15132;SDS011;7667;51.232;17.110;2023-06-10T02:20:56;11.00;;;9.80;;
15132;SDS011;7667;51.232;17.110;2023-06-10T02:23:24;11.00;;;10.00;;
15132;SDS011;7667;51.232;17.110;2023-06-10T02:25:51;11.93;;;10.63;;
15132;SDS011;7667;51.232;17.110;2023-06-10T02:28:19;12.47;;;11.20;;
15132;SDS011;7667;51.232;17.110;2023-06-10T02:30:46;12.80;;;11.50;;
15132;SDS011;7667;51.232;17.110;2023-06-10T02:33:14;12.33;;;11.23;;
15132;SDS011;7667;51.232;17.110;2023-06-10T02:35:42;11.83;;;10.83;;
15132;SDS011;7667;51.232;17.110;2023-06-10T02:38:09;14.20;;;10.30;;
15132;SDS011;7667;51.232;17.110;2023-06-10T02:40:37;10.47;;;9.43;;
15132;SDS011;7667;51.232;17.110;2023-06-10T02:43:05;9.97;;;9.07;;
15132;SDS011;7667;51.232;17.110;2023-06-10T02:45:32;9.30;;;8.50;;
15132;SDS011;7667;51.232;17.110;2023-06-10T02:48:00;9.57;;;8.63;;
15132;SDS011;7667;51.232;17.110;2023-06-10T02:50:28;12.37;;;9.50;;
15132;SDS011;7667;51.232;17.110;2023-06-10T02:52:55;12.27;;;9.53;;
15132;SDS011;7667;51.232;17.110;2023-06-10T02:55:23;11.33;;;9.63;;
15132;SDS011;7667;51.232;17.110;2023-06-10T02:57:53;11.33;;;10.13;;
15132;SDS011;7667;51.232;17.110;2023-06-10T03:00:20;12.00;;;10.00;;
15132;SDS011;7667;51.232;17.110;2023-06-10T03:02:49;10.73;;;9.73;;
15132;SDS011;7667;51.232;17.110;2023-06-10T03:05:17;11.33;;;10.23;;
15132;SDS011;7667;51.232;17.110;2023-06-10T03:07:45;11.83;;;10.63;;
15132;SDS011;7667;51.232;17.110;2023-06-10T03:10:14;12.80;;;11.50;;
15132;SDS011;7667;51.232;17.110;2023-06-10T03:12:42;13.20;;;12.00;;
15132;SDS011;7667;51.232;17.110;2023-06-10T03:15:10;12.40;;;11.30;;
15132;SDS011;7667;51.232;17.110;2023-06-10T03:17:38;12.63;;;11.33;;
15132;SDS011;7667;51.232;17.110;2023-06-10T03:20:06;11.70;;;10.67;;
15132;SDS011;7667;51.232;17.110;2023-06-10T03:22:37;12.57;;;10.97;;
15132;SDS011;7667;51.232;17.110;2023-06-10T03:25:05;12.17;;;10.97;;
15132;SDS011;7667;51.232;17.110;2023-06-10T03:27:35;12.30;;;11.10;;
15132;SDS011;7667;51.232;17.110;2023-06-10T03:30:03;12.43;;;11.20;;
15132;SDS011;7667;51.232;17.110;2023-06-10T03:32:31;12.20;;;10.90;;
15132;SDS011;7667;51.232;17.110;2023-06-10T03:34:58;13.00;;;11.37;;
15132;SDS011;7667;51.232;17.110;2023-06-10T03:37:26;13.40;;;12.10;;
15132;SDS011;7667;51.232;17.110;2023-06-10T03:39:53;14.07;;;12.77;;
15132;SDS011;7667;51.232;17.110;2023-06-10T03:42:21;13.60;;;12.40;;
15132;SDS011;7667;51.232;17.110;2023-06-10T03:44:48;13.90;;;12.57;;
15132;SDS011;7667;51.232;17.110;2023-06-10T03:47:16;14.10;;;12.70;;
15132;SDS011;7667;51.232;17.110;2023-06-10T03:49:44;14.27;;;12.63;;
15132;SDS011;7667;51.232;17.110;2023-06-10T03:52:12;13.40;;;12.23;;
15132;SDS011;7667;51.232;17.110;2023-06-10T03:54:39;13.43;;;12.10;;
15132;SDS011;7667;51.232;17.110;2023-06-10T03:57:07;14.20;;;12.83;;
15132;SDS011;7667;51.232;17.110;2023-06-10T03:59:35;13.43;;;12.10;;
15132;SDS011;7667;51.232;17.110;2023-06-10T04:02:02;13.27;;;12.03;;
15132;SDS011;7667;51.232;17.110;2023-06-10T04:04:31;13.70;;;12.40;;
15132;SDS011;7667;51.232;17.110;2023-06-10T04:06:59;13.33;;;12.13;;
15132;SDS011;7667;51.232;17.110;2023-06-10T04:09:26;13.73;;;12.33;;
15132;SDS011;7667;51.232;17.110;2023-06-10T04:11:54;14.07;;;12.67;;
15132;SDS011;7667;51.232;17.110;2023-06-10T04:14:22;13.90;;;12.43;;
15132;SDS011;7667;51.232;17.110;2023-06-10T04:16:49;12.77;;;11.53;;
15132;SDS011;7667;51.232;17.110;2023-06-10T04:19:18;12.50;;;11.50;;
15132;SDS011;7667;51.232;17.110;2023-06-10T04:21:45;11.80;;;10.70;;
15132;SDS011;7667;51.232;17.110;2023-06-10T04:24:13;11.40;;;10.23;;
15132;SDS011;7667;51.232;17.110;2023-06-10T04:26:41;12.23;;;10.60;;
15132;SDS011;7667;51.232;17.110;2023-06-10T04:29:08;11.20;;;10.20;;
15132;SDS011;7667;51.232;17.110;2023-06-10T04:31:36;11.83;;;10.63;;
15132;SDS011;7667;51.232;17.110;2023-06-10T04:34:03;12.13;;;11.13;;
15132;SDS011;7667;51.232;17.110;2023-06-10T04:36:31;11.63;;;10.53;;
15132;SDS011;7667;51.232;17.110;2023-06-10T04:38:59;10.67;;;9.67;;
15132;SDS011;7667;51.232;17.110;2023-06-10T04:41:26;11.37;;;10.17;;
15132;SDS011;7667;51.232;17.110;2023-06-10T04:43:54;11.50;;;10.30;;
15132;SDS011;7667;51.232;17.110;2023-06-10T04:46:22;11.77;;;10.43;;
15132;SDS011;7667;51.232;17.110;2023-06-10T04:48:50;11.60;;;10.50;;
15132;SDS011;7667;51.232;17.110;2023-06-10T04:51:17;11.47;;;10.47;;
15132;SDS011;7667;51.232;17.110;2023-06-10T04:53:45;11.37;;;10.23;;
15132;SDS011;7667;51.232;17.110;2023-06-10T04:56:13;11.57;;;10.53;;
15132;SDS011;7667;51.232;17.110;2023-06-10T04:58:42;11.57;;;10.47;;
15132;SDS011;7667;51.232;17.110;2023-06-10T05:01:09;12.70;;;11.40;;
15132;SDS011;7667;51.232;17.110;2023-06-10T05:03:37;12.03;;;11.00;;
15132;SDS011;7667;51.232;17.110;2023-06-10T05:06:04;12.40;;;11.30;;
15132;SDS011;7667;51.232;17.110;2023-06-10T05:08:32;12.30;;;11.00;;
15132;SDS011;7667;51.232;17.110;2023-06-10T05:11:00;12.77;;;11.67;;
15132;SDS011;7667;51.232;17.110;2023-06-10T05:13:27;11.93;;;10.93;;
15132;SDS011;7667;51.232;17.110;2023-06-10T05:15:55;12.50;;;11.50;;
15132;SDS011;7667;51.232;17.110;2023-06-10T05:18:23;11.90;;;10.73;;
15132;SDS011;7667;51.232;17.110;2023-06-10T05:20:51;12.07;;;11.00;;
15132;SDS011;7667;51.232;17.110;2023-06-10T05:23:20;11.87;;;10.80;;
15132;SDS011;7667;51.232;17.110;2023-06-10T05:25:48;11.57;;;10.67;;
15132;SDS011;7667;51.232;17.110;2023-06-10T05:28:15;11.67;;;10.50;;
15132;SDS011;7667;51.232;17.110;2023-06-10T05:30:43;11.37;;;10.37;;
15132;SDS011;7667;51.232;17.110;2023-06-10T05:33:11;11.70;;;10.23;;
15132;SDS011;7667;51.232;17.110;2023-06-10T05:35:38;11.00;;;9.90;;
15132;SDS011;7667;51.232;17.110;2023-06-10T05:38:07;11.97;;;10.87;;
15132;SDS011;7667;51.232;17.110;2023-06-10T05:40:35;11.83;;;10.60;;
15132;SDS011;7667;51.232;17.110;2023-06-10T05:43:02;11.77;;;10.57;;
15132;SDS011;7667;51.232;17.110;2023-06-10T05:45:30;10.67;;;9.77;;
15132;SDS011;7667;51.232;17.110;2023-06-10T05:47:58;11.70;;;10.40;;
15132;SDS011;7667;51.232;17.110;2023-06-10T05:50:25;12.10;;;11.00;;
15132;SDS011;7667;51.232;17.110;2023-06-10T05:52:53;11.80;;;10.70;;
15132;SDS011;7667;51.232;17.110;2023-06-10T05:55:21;12.63;;;11.33;;
15132;SDS011;7667;51.232;17.110;2023-06-10T05:57:57;12.30;;;11.20;;
15132;SDS011;7667;51.232;17.110;2023-06-10T06:00:26;12.87;;;11.60;;
15132;SDS011;7667;51.232;17.110;2023-06-10T06:02:54;12.43;;;11.33;;
15132;SDS011;7667;51.232;17.110;2023-06-10T06:05:24;12.33;;;11.23;;
15132;SDS011;7667;51.232;17.110;2023-06-10T06:07:52;12.57;;;11.37;;
15132;SDS011;7667;51.232;17.110;2023-06-10T06:10:19;13.47;;;12.07;;
15132;SDS011;7667;51.232;17.110;2023-06-10T06:12:47;12.57;;;11.37;;
15132;SDS011;7667;51.232;17.110;2023-06-10T06:15:15;12.50;;;11.23;;
15132;SDS011;7667;51.232;17.110;2023-06-10T06:17:42;12.30;;;11.10;;
15132;SDS011;7667;51.232;17.110;2023-06-10T06:20:10;13.03;;;11.70;;
15132;SDS011;7667;51.232;17.110;2023-06-10T06:22:38;11.63;;;10.63;;
15132;SDS011;7667;51.232;17.110;2023-06-10T06:25:06;12.60;;;11.37;;
15132;SDS011;7667;51.232;17.110;2023-06-10T06:27:34;12.00;;;10.73;;
15132;SDS011;7667;51.232;17.110;2023-06-10T06:30:02;11.20;;;10.20;;
15132;SDS011;7667;51.232;17.110;2023-06-10T06:32:30;11.77;;;10.67;;
15132;SDS011;7667;51.232;17.110;2023-06-10T06:34:58;11.80;;;10.67;;
15132;SDS011;7667;51.232;17.110;2023-06-10T06:37:26;13.00;;;10.93;;
15132;SDS011;7667;51.232;17.110;2023-06-10T06:39:53;12.37;;;11.27;;
15132;SDS011;7667;51.232;17.110;2023-06-10T06:42:22;12.93;;;11.73;;
15132;SDS011;7667;51.232;17.110;2023-06-10T06:44:50;13.07;;;11.87;;
15132;SDS011;7667;51.232;17.110;2023-06-10T06:47:18;12.93;;;11.53;;
15132;SDS011;7667;51.232;17.110;2023-06-10T06:49:46;11.30;;;9.33;;
15132;SDS011;7667;51.232;17.110;2023-06-10T06:52:14;10.60;;;9.50;;
15132;SDS011;7667;51.232;17.110;2023-06-10T06:54:42;9.87;;;8.90;;
15132;SDS011;7667;51.232;17.110;2023-06-10T06:57:10;10.00;;;9.00;;
15132;SDS011;7667;51.232;17.110;2023-06-10T06:59:38;10.63;;;9.37;;
15132;SDS011;7667;51.232;17.110;2023-06-10T07:02:05;10.20;;;8.93;;
15132;SDS011;7667;51.232;17.110;2023-06-10T07:04:33;9.83;;;8.30;;
15132;SDS011;7667;51.232;17.110;2023-06-10T07:07:00;14.57;;;8.27;;
15132;SDS011;7667;51.232;17.110;2023-06-10T07:09:28;9.20;;;8.10;;
15132;SDS011;7667;51.232;17.110;2023-06-10T07:11:56;10.40;;;8.00;;
15132;SDS011;7667;51.232;17.110;2023-06-10T07:14:23;7.90;;;7.13;;
15132;SDS011;7667;51.232;17.110;2023-06-10T07:16:51;8.68;;;7.20;;
15132;SDS011;7667;51.232;17.110;2023-06-10T07:19:19;8.93;;;7.18;;
15132;SDS011;7667;51.232;17.110;2023-06-10T07:21:46;7.13;;;6.20;;
15132;SDS011;7667;51.232;17.110;2023-06-10T07:24:14;6.82;;;5.82;;
15132;SDS011;7667;51.232;17.110;2023-06-10T07:26:42;8.70;;;6.05;;
15132;SDS011;7667;51.232;17.110;2023-06-10T07:29:10;7.13;;;6.32;;
15132;SDS011;7667;51.232;17.110;2023-06-10T07:31:37;6.70;;;6.05;;
15132;SDS011;7667;51.232;17.110;2023-06-10T07:34:05;8.43;;;7.13;;
15132;SDS011;7667;51.232;17.110;2023-06-10T07:36:32;8.13;;;5.75;;
15132;SDS011;7667;51.232;17.110;2023-06-10T07:39:00;7.47;;;6.78;;
15132;SDS011;7667;51.232;17.110;2023-06-10T07:41:27;7.93;;;6.70;;
15132;SDS011;7667;51.232;17.110;2023-06-10T07:43:55;7.45;;;6.75;;
15132;SDS011;7667;51.232;17.110;2023-06-10T07:46:23;9.40;;;6.85;;
15132;SDS011;7667;51.232;17.110;2023-06-10T07:48:51;7.18;;;5.88;;
15132;SDS011;7667;51.232;17.110;2023-06-10T07:51:18;7.68;;;5.82;;
15132;SDS011;7667;51.232;17.110;2023-06-10T07:53:47;7.40;;;6.18;;
15132;SDS011;7667;51.232;17.110;2023-06-10T07:56:15;6.53;;;5.93;;
15132;SDS011;7667;51.232;17.110;2023-06-10T07:58:43;7.45;;;6.20;;
15132;SDS011;7667;51.232;17.110;2023-06-10T08:01:10;7.18;;;6.47;;
15132;SDS011;7667;51.232;17.110;2023-06-10T08:03:38;7.40;;;6.50;;
15132;SDS011;7667;51.232;17.110;2023-06-10T08:06:06;7.03;;;6.25;;
15132;SDS011;7667;51.232;17.110;2023-06-10T08:08:33;6.40;;;5.78;;
15132;SDS011;7667;51.232;17.110;2023-06-10T08:11:01;9.23;;;6.82;;
15132;SDS011;7667;51.232;17.110;2023-06-10T08:13:29;9.02;;;6.80;;
15132;SDS011;7667;51.232;17.110;2023-06-10T08:15:56;6.75;;;6.05;;
15132;SDS011;7667;51.232;17.110;2023-06-10T08:18:24;9.55;;;7.28;;
15132;SDS011;7667;51.232;17.110;2023-06-10T08:20:51;10.43;;;9.32;;
15132;SDS011;7667;51.232;17.110;2023-06-10T08:23:19;11.20;;;10.00;;
15132;SDS011;7667;51.232;17.110;2023-06-10T08:25:47;8.07;;;7.28;;
15132;SDS011;7667;51.232;17.110;2023-06-10T08:28:14;7.53;;;6.38;;
15132;SDS011;7667;51.232;17.110;2023-06-10T08:30:42;8.32;;;6.90;;
15132;SDS011;7667;51.232;17.110;2023-06-10T08:33:10;7.82;;;7.07;;
15132;SDS011;7667;51.232;17.110;2023-06-10T08:35:37;8.10;;;7.05;;
15132;SDS011;7667;51.232;17.110;2023-06-10T08:38:05;8.75;;;7.07;;
15132;SDS011;7667;51.232;17.110;2023-06-10T08:40:33;8.75;;;7.78;;
15132;SDS011;7667;51.232;17.110;2023-06-10T08:43:05;8.93;;;8.13;;
15132;SDS011;7667;51.232;17.110;2023-06-10T08:45:34;9.57;;;7.88;;
15132;SDS011;7667;51.232;17.110;2023-06-10T08:48:03;9.35;;;8.35;;
15132;SDS011;7667;51.232;17.110;2023-06-10T08:50:36;9.93;;;8.60;;
15132;SDS011;7667;51.232;17.110;2023-06-10T08:53:04;10.55;;;9.45;;
15132;SDS011;7667;51.232;17.110;2023-06-10T08:55:37;11.05;;;9.98;;
15132;SDS011;7667;51.232;17.110;2023-06-10T08:58:09;9.80;;;8.90;;
15132;SDS011;7667;51.232;17.110;2023-06-10T09:00:37;11.50;;;9.65;;
15132;SDS011;7667;51.232;17.110;2023-06-10T09:03:05;11.70;;;10.50;;
15132;SDS011;7667;51.232;17.110;2023-06-10T09:05:35;11.27;;;9.85;;
15132;SDS011;7667;51.232;17.110;2023-06-10T09:08:08;10.45;;;9.27;;
15132;SDS011;7667;51.232;17.110;2023-06-10T09:10:36;10.02;;;9.02;;
15132;SDS011;7667;51.232;17.110;2023-06-10T09:13:03;9.40;;;8.60;;
15132;SDS011;7667;51.232;17.110;2023-06-10T09:15:31;9.32;;;8.32;;
15132;SDS011;7667;51.232;17.110;2023-06-10T09:17:59;8.82;;;6.38;;
15132;SDS011;7667;51.232;17.110;2023-06-10T09:20:27;8.15;;;7.35;;
15132;SDS011;7667;51.232;17.110;2023-06-10T09:22:55;8.45;;;7.63;;
15132;SDS011;7667;51.232;17.110;2023-06-10T09:25:33;9.90;;;8.68;;
15132;SDS011;7667;51.232;17.110;2023-06-10T09:28:12;9.50;;;8.60;;
15132;SDS011;7667;51.232;17.110;2023-06-10T09:30:41;8.80;;;7.88;;
15132;SDS011;7667;51.232;17.110;2023-06-10T09:33:13;11.38;;;8.30;;
15132;SDS011;7667;51.232;17.110;2023-06-10T09:35:46;10.05;;;9.05;;
15132;SDS011;7667;51.232;17.110;2023-06-10T09:38:19;8.38;;;7.47;;
15132;SDS011;7667;51.232;17.110;2023-06-10T09:40:49;10.60;;;8.25;;
15132;SDS011;7667;51.232;17.110;2023-06-10T09:43:19;9.32;;;8.43;;
15132;SDS011;7667;51.232;17.110;2023-06-10T09:45:48;10.15;;;8.02;;
15132;SDS011;7667;51.232;17.110;2023-06-10T09:48:20;8.75;;;7.30;;
15132;SDS011;7667;51.232;17.110;2023-06-10T09:50:50;8.55;;;7.75;;
15132;SDS011;7667;51.232;17.110;2023-06-10T09:53:18;9.82;;;7.88;;
15132;SDS011;7667;51.232;17.110;2023-06-10T09:55:45;5.28;;;4.82;;
15132;SDS011;7667;51.232;17.110;2023-06-10T09:58:13;7.88;;;6.57;;
15132;SDS011;7667;51.232;17.110;2023-06-10T10:00:41;7.68;;;6.97;;
15132;SDS011;7667;51.232;17.110;2023-06-10T10:03:09;6.38;;;5.78;;
15132;SDS011;7667;51.232;17.110;2023-06-10T10:05:49;6.65;;;6.03;;
15132;SDS011;7667;51.232;17.110;2023-06-10T10:08:24;7.03;;;6.38;;
15132;SDS011;7667;51.232;17.110;2023-06-10T10:10:52;6.78;;;6.18;;
15132;SDS011;7667;51.232;17.110;2023-06-10T10:13:20;7.00;;;6.40;;
15132;SDS011;7667;51.232;17.110;2023-06-10T10:15:48;7.03;;;6.32;;
15132;SDS011;7667;51.232;17.110;2023-06-10T10:18:16;7.28;;;5.85;;
15132;SDS011;7667;51.232;17.110;2023-06-10T10:20:49;7.97;;;5.93;;
15132;SDS011;7667;51.232;17.110;2023-06-10T10:23:24;6.38;;;5.78;;
15132;SDS011;7667;51.232;17.110;2023-06-10T10:25:59;5.57;;;4.97;;
15132;SDS011;7667;51.232;17.110;2023-06-10T10:28:45;5.57;;;5.03;;
15132;SDS011;7667;51.232;17.110;2023-06-10T10:31:20;6.57;;;5.22;;
15132;SDS011;7667;51.232;17.110;2023-06-10T10:33:51;5.50;;;4.63;;
15132;SDS011;7667;51.232;17.110;2023-06-10T10:36:26;6.15;;;5.10;;
15132;SDS011;7667;51.232;17.110;2023-06-10T10:38:55;6.65;;;4.63;;
15132;SDS011;7667;51.232;17.110;2023-06-10T10:41:23;7.57;;;4.90;;
15132;SDS011;7667;51.232;17.110;2023-06-10T10:43:52;5.80;;;5.00;;
15132;SDS011;7667;51.232;17.110;2023-06-10T10:46:21;6.18;;;4.18;;
15132;SDS011;7667;51.232;17.110;2023-06-10T10:48:52;6.55;;;4.55;;
15132;SDS011;7667;51.232;17.110;2023-06-10T10:51:22;8.35;;;4.03;;
15132;SDS011;7667;51.232;17.110;2023-06-10T10:54:09;4.88;;;4.40;;
15132;SDS011;7667;51.232;17.110;2023-06-10T10:59:43;7.18;;;4.32;;
15132;SDS011;7667;51.232;17.110;2023-06-10T11:05:14;6.45;;;4.28;;
15132;SDS011;7667;51.232;17.110;2023-06-10T11:07:53;7.30;;;4.47;;
15132;SDS011;7667;51.232;17.110;2023-06-10T11:10:29;5.28;;;4.22;;
15132;SDS011;7667;51.232;17.110;2023-06-10T11:13:09;4.80;;;4.25;;
15132;SDS011;7667;51.232;17.110;2023-06-10T11:15:45;5.55;;;4.00;;
15132;SDS011;7667;51.232;17.110;2023-06-10T11:18:26;5.90;;;4.80;;
15132;SDS011;7667;51.232;17.110;2023-06-10T11:20:59;5.82;;;4.47;;
15132;SDS011;7667;51.232;17.110;2023-06-10T11:26:10;5.88;;;4.47;;
15132;SDS011;7667;51.232;17.110;2023-06-10T11:34:23;6.45;;;4.47;;
15132;SDS011;7667;51.232;17.110;2023-06-10T11:36:53;7.00;;;4.20;;
15132;SDS011;7667;51.232;17.110;2023-06-10T11:39:20;6.47;;;4.88;;
15132;SDS011;7667;51.232;17.110;2023-06-10T11:41:50;4.82;;;4.35;;
15132;SDS011;7667;51.232;17.110;2023-06-10T11:44:18;4.53;;;4.13;;
15132;SDS011;7667;51.232;17.110;2023-06-10T11:46:47;6.22;;;5.10;;
15132;SDS011;7667;51.232;17.110;2023-06-10T11:49:16;8.15;;;4.50;;
15132;SDS011;7667;51.232;17.110;2023-06-10T11:51:44;7.70;;;4.72;;
15132;SDS011;7667;51.232;17.110;2023-06-10T11:54:16;7.90;;;4.53;;
15132;SDS011;7667;51.232;17.110;2023-06-10T11:56:45;4.63;;;4.10;;
15132;SDS011;7667;51.232;17.110;2023-06-10T11:59:14;5.90;;;5.07;;
15132;SDS011;7667;51.232;17.110;2023-06-10T12:01:43;5.40;;;4.85;;
15132;SDS011;7667;51.232;17.110;2023-06-10T12:04:14;7.35;;;4.70;;
15132;SDS011;7667;51.232;17.110;2023-06-10T12:06:44;6.40;;;5.80;;
15132;SDS011;7667;51.232;17.110;2023-06-10T12:09:18;7.32;;;4.18;;
15132;SDS011;7667;51.232;17.110;2023-06-10T12:11:58;10.13;;;4.43;;
15132;SDS011;7667;51.232;17.110;2023-06-10T12:17:44;7.32;;;4.70;;
15132;SDS011;7667;51.232;17.110;2023-06-10T12:20:28;5.05;;;4.15;;
15132;SDS011;7667;51.232;17.110;2023-06-10T12:23:08;4.18;;;3.80;;
15132;SDS011;7667;51.232;17.110;2023-06-10T12:25:37;9.73;;;4.38;;
15132;SDS011;7667;51.232;17.110;2023-06-10T12:28:09;7.18;;;4.07;;
15132;SDS011;7667;51.232;17.110;2023-06-10T12:30:37;5.70;;;3.90;;
15132;SDS011;7667;51.232;17.110;2023-06-10T12:33:05;3.80;;;3.15;;
15132;SDS011;7667;51.232;17.110;2023-06-10T12:35:47;6.10;;;3.50;;
15132;SDS011;7667;51.232;17.110;2023-06-10T12:38:22;4.15;;;3.67;;
15132;SDS011;7667;51.232;17.110;2023-06-10T12:40:53;4.97;;;3.85;;
15132;SDS011;7667;51.232;17.110;2023-06-10T12:43:24;5.05;;;3.80;;
15132;SDS011;7667;51.232;17.110;2023-06-10T12:45:52;3.70;;;3.35;;
15132;SDS011;7667;51.232;17.110;2023-06-10T12:48:23;5.25;;;3.72;;
15132;SDS011;7667;51.232;17.110;2023-06-10T12:50:55;3.65;;;3.08;;
15132;SDS011;7667;51.232;17.110;2023-06-10T12:53:24;4.57;;;3.72;;
15132;SDS011;7667;51.232;17.110;2023-06-10T12:55:55;5.35;;;3.60;;
15132;SDS011;7667;51.232;17.110;2023-06-10T12:58:24;5.25;;;3.60;;
15132;SDS011;7667;51.232;17.110;2023-06-10T13:00:52;3.05;;;2.75;;
15132;SDS011;7667;51.232;17.110;2023-06-10T13:03:20;6.53;;;3.40;;
15132;SDS011;7667;51.232;17.110;2023-06-10T13:05:48;4.43;;;3.75;;
15132;SDS011;7667;51.232;17.110;2023-06-10T13:08:15;7.45;;;3.50;;
15132;SDS011;7667;51.232;17.110;2023-06-10T13:10:44;5.20;;;3.13;;
15132;SDS011;7667;51.232;17.110;2023-06-10T13:13:11;8.05;;;3.53;;
15132;SDS011;7667;51.232;17.110;2023-06-10T13:15:41;4.00;;;3.40;;
15132;SDS011;7667;51.232;17.110;2023-06-10T13:18:10;5.90;;;3.20;;
15132;SDS011;7667;51.232;17.110;2023-06-10T13:20:38;5.38;;;3.30;;
15132;SDS011;7667;51.232;17.110;2023-06-10T13:23:06;4.32;;;3.35;;
15132;SDS011;7667;51.232;17.110;2023-06-10T13:25:34;11.63;;;3.63;;
15132;SDS011;7667;51.232;17.110;2023-06-10T13:28:01;6.13;;;2.67;;
15132;SDS011;7667;51.232;17.110;2023-06-10T13:30:29;4.35;;;3.22;;
15132;SDS011;7667;51.232;17.110;2023-06-10T13:32:56;4.72;;;3.47;;
15132;SDS011;7667;51.232;17.110;2023-06-10T13:35:24;5.18;;;3.40;;
15132;SDS011;7667;51.232;17.110;2023-06-10T13:37:52;7.30;;;3.13;;
15132;SDS011;7667;51.232;17.110;2023-06-10T13:40:19;4.60;;;2.67;;
15132;SDS011;7667;51.232;17.110;2023-06-10T13:42:47;3.97;;;3.10;;
15132;SDS011;7667;51.232;17.110;2023-06-10T13:45:17;3.70;;;2.80;;
15132;SDS011;7667;51.232;17.110;2023-06-10T13:47:45;6.78;;;3.10;;
15132;SDS011;7667;51.232;17.110;2023-06-10T13:50:13;5.57;;;3.40;;
15132;SDS011;7667;51.232;17.110;2023-06-10T13:52:40;4.05;;;3.22;;
15132;SDS011;7667;51.232;17.110;2023-06-10T13:55:08;6.78;;;3.55;;
15132;SDS011;7667;51.232;17.110;2023-06-10T13:57:36;4.95;;;3.45;;
15132;SDS011;7667;51.232;17.110;2023-06-10T14:00:04;4.60;;;3.28;;
15132;SDS011;7667;51.232;17.110;2023-06-10T14:02:32;7.95;;;6.35;;
15132;SDS011;7667;51.232;17.110;2023-06-10T14:05:00;5.10;;;3.10;;
15132;SDS011;7667;51.232;17.110;2023-06-10T14:07:28;8.02;;;2.80;;
15132;SDS011;7667;51.232;17.110;2023-06-10T14:09:56;5.22;;;2.92;;
15132;SDS011;7667;51.232;17.110;2023-06-10T14:12:23;3.78;;;2.55;;
15132;SDS011;7667;51.232;17.110;2023-06-10T14:14:51;4.55;;;3.05;;
15132;SDS011;7667;51.232;17.110;2023-06-10T14:17:19;4.35;;;3.40;;
15132;SDS011;7667;51.232;17.110;2023-06-10T14:19:46;3.33;;;2.90;;
15132;SDS011;7667;51.232;17.110;2023-06-10T14:22:14;4.32;;;3.10;;
15132;SDS011;7667;51.232;17.110;2023-06-10T14:24:41;5.05;;;3.35;;
15132;SDS011;7667;51.232;17.110;2023-06-10T14:27:09;3.75;;;2.92;;
15132;SDS011;7667;51.232;17.110;2023-06-10T14:29:37;5.05;;;2.97;;
15132;SDS011;7667;51.232;17.110;2023-06-10T14:32:04;4.75;;;3.28;;
15132;SDS011;7667;51.232;17.110;2023-06-10T14:34:35;6.32;;;3.58;;
15132;SDS011;7667;51.232;17.110;2023-06-10T14:37:03;3.35;;;3.05;;
15132;SDS011;7667;51.232;17.110;2023-06-10T14:39:34;6.40;;;2.90;;
15132;SDS011;7667;51.232;17.110;2023-06-10T14:42:02;6.70;;;3.50;;
15132;SDS011;7667;51.232;17.110;2023-06-10T14:44:29;4.85;;;3.00;;
15132;SDS011;7667;51.232;17.110;2023-06-10T14:46:58;4.13;;;3.05;;
15132;SDS011;7667;51.232;17.110;2023-06-10T14:49:25;3.40;;;2.92;;
15132;SDS011;7667;51.232;17.110;2023-06-10T14:51:53;6.43;;;3.38;;
15132;SDS011;7667;51.232;17.110;2023-06-10T14:54:21;6.13;;;3.22;;
15132;SDS011;7667;51.232;17.110;2023-06-10T14:56:48;3.60;;;3.00;;
15132;SDS011;7667;51.232;17.110;2023-06-10T14:59:16;4.78;;;3.08;;
15132;SDS011;7667;51.232;17.110;2023-06-10T15:01:44;3.95;;;3.00;;
15132;SDS011;7667;51.232;17.110;2023-06-10T15:04:12;3.75;;;3.28;;
15132;SDS011;7667;51.232;17.110;2023-06-10T15:06:39;6.40;;;3.42;;
15132;SDS011;7667;51.232;17.110;2023-06-10T15:09:08;6.38;;;3.05;;
15132;SDS011;7667;51.232;17.110;2023-06-10T15:11:36;5.53;;;2.97;;
15132;SDS011;7667;51.232;17.110;2023-06-10T15:14:04;4.45;;;2.45;;
15132;SDS011;7667;51.232;17.110;2023-06-10T15:16:32;5.35;;;3.17;;
15132;SDS011;7667;51.232;17.110;2023-06-10T15:18:59;3.88;;;2.60;;
15132;SDS011;7667;51.232;17.110;2023-06-10T15:21:27;5.40;;;2.88;;